createdAt,value
2022-09-18T00:00:00.898Z,3.20
2022-09-18T00:02:28.305Z,4.57
2022-09-18T00:04:55.731Z,3.58
2022-09-18T00:07:23.071Z,3.40
2022-09-18T00:09:50.528Z,4.00
2022-09-18T00:12:17.944Z,4.00
2022-09-18T00:14:45.855Z,4.93
2022-09-18T00:17:14.596Z,4.72
2022-09-18T00:19:42.009Z,8.98
2022-09-18T00:22:09.310Z,4.57
2022-09-18T00:24:36.715Z,4.10
2022-09-18T00:27:04.119Z,6.28
2022-09-18T00:29:31.661Z,3.63
2022-09-18T00:31:59.847Z,7.18
2022-09-18T00:34:28.720Z,4.07
2022-09-18T00:36:56.063Z,4.50
2022-09-18T00:39:23.386Z,5.22
2022-09-18T00:41:51.352Z,3.85
2022-09-18T00:44:35.873Z,4.93
2022-09-18T00:47:08.816Z,4.70
2022-09-18T00:49:38.723Z,4.65
2022-09-18T00:52:06.257Z,2.20
2022-09-18T00:54:35.521Z,4.80
2022-09-18T00:57:05.301Z,4.45
2022-09-18T00:59:36.699Z,3.53
2022-09-18T01:02:05.468Z,3.63
2022-09-18T01:04:33.097Z,4.60
2022-09-18T01:07:04.095Z,3.78
2022-09-18T01:09:35.515Z,3.65
2022-09-18T01:12:06.472Z,2.40
2022-09-18T01:14:36.648Z,1.70
2022-09-18T01:17:10.165Z,1.80
2022-09-18T01:20:00.031Z,2.50
2022-09-18T01:22:36.802Z,2.65
2022-09-18T01:25:11.319Z,2.60
2022-09-18T01:27:45.272Z,3.92
2022-09-18T01:30:13.666Z,3.92
2022-09-18T01:32:42.895Z,2.88
2022-09-18T01:35:39.499Z,1.75
2022-09-18T01:38:04.666Z,2.20
2022-09-18T01:40:34.474Z,2.50
2022-09-18T01:43:06.847Z,3.40
2022-09-18T01:45:35.495Z,1.98
2022-09-18T01:48:04.675Z,2.30
2022-09-18T01:50:33.451Z,1.63
2022-09-18T01:53:07.683Z,1.52
2022-09-18T01:55:35.482Z,2.40
2022-09-18T01:58:07.253Z,1.40
2022-09-18T02:00:35.366Z,2.85
2022-09-18T02:03:06.136Z,2.03
2022-09-18T02:05:36.354Z,1.30
2022-09-18T02:08:08.506Z,2.45
2022-09-18T02:10:38.238Z,1.63
2022-09-18T02:13:08.089Z,1.42
2022-09-18T02:15:37.430Z,1.35
2022-09-18T02:18:06.642Z,2.00
2022-09-18T02:20:35.294Z,1.48
2022-09-18T02:23:04.962Z,2.50
2022-09-18T02:25:33.825Z,2.53
2022-09-18T02:28:01.747Z,4.35
2022-09-18T02:30:31.050Z,1.70
2022-09-18T02:32:58.730Z,2.15
2022-09-18T02:35:32.479Z,1.88
2022-09-18T02:38:05.439Z,3.10
2022-09-18T02:40:39.399Z,4.05
2022-09-18T02:43:11.808Z,3.50
2022-09-18T02:45:45.314Z,2.42
2022-09-18T02:48:20.209Z,4.47
2022-09-18T02:50:50.024Z,4.43
2022-09-18T02:53:20.126Z,3.05
2022-09-18T02:55:51.029Z,4.00
2022-09-18T02:58:19.746Z,5.70
2022-09-18T03:00:49.251Z,3.17
2022-09-18T03:03:19.823Z,7.70
2022-09-18T03:05:47.210Z,7.53
2022-09-18T03:08:14.555Z,7.90
2022-09-18T03:10:42.666Z,5.57
2022-09-18T03:13:10.054Z,5.35
2022-09-18T03:15:37.396Z,8.57
2022-09-18T03:18:06.150Z,7.75
2022-09-18T03:20:33.532Z,6.43
2022-09-18T03:23:00.919Z,8.75
2022-09-18T03:25:28.277Z,5.35
2022-09-18T03:27:56.131Z,9.80
2022-09-18T03:30:23.935Z,12.93
2022-09-18T03:32:51.803Z,8.13
2022-09-18T03:35:20.797Z,7.60
2022-09-18T03:37:48.844Z,10.65
2022-09-18T03:40:16.804Z,10.15
2022-09-18T03:42:44.214Z,11.93
2022-09-18T03:45:12.097Z,7.28
2022-09-18T03:47:39.816Z,7.30
2022-09-18T03:50:07.617Z,7.88
2022-09-18T03:52:36.310Z,14.35
2022-09-18T03:55:03.638Z,10.98
2022-09-18T03:57:31.013Z,11.38
2022-09-18T03:59:58.365Z,7.57
2022-09-18T04:02:25.764Z,11.50
2022-09-18T04:04:53.928Z,12.63
2022-09-18T04:07:21.314Z,14.60
2022-09-18T04:09:50.023Z,13.52
2022-09-18T04:12:17.474Z,12.63
2022-09-18T04:14:44.861Z,12.32
2022-09-18T04:17:12.228Z,11.40
2022-09-18T04:19:39.614Z,9.32
2022-09-18T04:22:06.967Z,8.77
2022-09-18T04:24:35.269Z,8.25
2022-09-18T04:27:04.500Z,13.55
2022-09-18T04:29:34.740Z,8.98
2022-09-18T04:32:02.222Z,12.57
2022-09-18T04:34:29.572Z,10.13
2022-09-18T04:36:56.987Z,9.35
2022-09-18T04:39:24.354Z,13.18
2022-09-18T04:41:51.786Z,13.63
2022-09-18T04:44:20.501Z,12.85
2022-09-18T04:46:48.069Z,8.25
2022-09-18T04:49:15.431Z,11.23
2022-09-18T04:51:43.089Z,8.40
2022-09-18T04:54:10.544Z,10.18
2022-09-18T04:56:37.877Z,9.13
2022-09-18T04:59:05.268Z,9.48
2022-09-18T05:01:34.189Z,9.63
2022-09-18T05:04:01.746Z,7.45
2022-09-18T05:06:29.119Z,8.50
2022-09-18T05:08:56.518Z,8.85
2022-09-18T05:11:24.070Z,11.35
2022-09-18T05:13:56.425Z,11.57
2022-09-18T05:16:24.606Z,9.55
2022-09-18T05:18:53.438Z,7.93
2022-09-18T05:21:20.797Z,8.10
2022-09-18T05:23:48.243Z,10.88
2022-09-18T05:26:15.687Z,14.82
2022-09-18T05:28:43.006Z,11.23
2022-09-18T05:31:10.479Z,10.60
2022-09-18T05:33:38.739Z,9.70
2022-09-18T05:36:07.602Z,7.75
2022-09-18T05:38:34.993Z,9.73
2022-09-18T05:41:02.592Z,6.25
2022-09-18T05:43:30.391Z,8.02
2022-09-18T05:45:57.856Z,6.05
2022-09-18T05:48:25.254Z,8.15
2022-09-18T05:50:52.650Z,9.85
2022-09-18T05:53:22.042Z,8.02
2022-09-18T05:55:49.688Z,7.30
2022-09-18T05:58:18.287Z,7.22
2022-09-18T06:00:46.163Z,9.73
2022-09-18T06:03:14.833Z,10.85
2022-09-18T06:05:42.781Z,9.55
2022-09-18T06:08:11.391Z,8.07
2022-09-18T06:10:40.899Z,6.68
2022-09-18T06:13:09.141Z,6.47
2022-09-18T06:15:36.979Z,9.05
2022-09-18T06:18:05.034Z,11.90
2022-09-18T06:20:32.415Z,7.07
2022-09-18T06:23:00.814Z,9.27
2022-09-18T06:25:28.497Z,6.15
2022-09-18T06:27:59.942Z,10.25
2022-09-18T06:30:27.387Z,5.68
2022-09-18T06:32:56.766Z,9.63
2022-09-18T06:35:24.341Z,5.97
2022-09-18T06:37:51.705Z,6.38
2022-09-18T06:40:19.111Z,8.43
2022-09-18T06:42:46.552Z,3.88
2022-09-18T06:45:15.274Z,11.27
2022-09-18T06:47:42.665Z,14.27
2022-09-18T06:50:10.139Z,6.15
2022-09-18T06:52:37.506Z,7.88
2022-09-18T06:55:05.111Z,8.15
2022-09-18T06:57:32.494Z,10.88
2022-09-18T06:59:59.882Z,4.93
2022-09-18T07:02:28.677Z,10.75
2022-09-18T07:04:56.079Z,7.75
2022-09-18T07:07:23.430Z,9.23
2022-09-18T07:09:50.825Z,7.80
2022-09-18T07:12:18.201Z,9.65
2022-09-18T07:14:45.996Z,6.63
2022-09-18T07:17:18.088Z,10.13
2022-09-18T07:19:47.850Z,6.78
2022-09-18T07:22:15.207Z,9.52
2022-09-18T07:24:43.374Z,9.10
2022-09-18T07:27:10.945Z,9.07
2022-09-18T07:29:38.340Z,10.13
2022-09-18T07:32:05.986Z,6.38
2022-09-18T07:34:34.233Z,11.57
2022-09-18T07:37:03.513Z,7.72
2022-09-18T07:39:31.234Z,11.23
2022-09-18T07:41:58.640Z,7.35
2022-09-18T07:44:27.581Z,7.15
2022-09-18T07:46:55.401Z,8.73
2022-09-18T07:49:22.902Z,7.10
2022-09-18T07:51:50.232Z,8.13
2022-09-18T07:54:19.055Z,9.65
2022-09-18T07:56:47.313Z,8.05
2022-09-18T07:59:14.739Z,7.85
2022-09-18T08:01:42.224Z,8.95
2022-09-18T08:04:09.860Z,8.48
2022-09-18T08:06:37.226Z,6.18
2022-09-18T08:09:04.823Z,3.60
2022-09-18T08:11:33.691Z,6.65
2022-09-18T08:14:01.212Z,10.75
2022-09-18T08:16:28.603Z,7.43
2022-09-18T08:18:56.937Z,6.32
2022-09-18T08:21:24.356Z,5.57
2022-09-18T08:23:51.727Z,7.85
2022-09-18T08:26:22.331Z,6.32
2022-09-18T08:28:51.292Z,5.97
2022-09-18T08:31:18.707Z,6.88
2022-09-18T08:33:46.132Z,5.05
2022-09-18T08:36:13.509Z,8.32
2022-09-18T08:38:40.890Z,8.20
2022-09-18T08:41:16.866Z,6.53
2022-09-18T08:43:48.478Z,7.38
2022-09-18T08:46:20.677Z,11.15
2022-09-18T08:48:52.585Z,8.27
2022-09-18T08:51:23.930Z,5.07
2022-09-18T08:53:53.267Z,6.97
2022-09-18T08:56:22.951Z,6.70
2022-09-18T08:58:53.127Z,8.48
2022-09-18T09:01:23.161Z,9.98
2022-09-18T09:03:55.735Z,9.40
2022-09-18T09:06:30.100Z,4.13
2022-09-18T09:09:21.069Z,7.28
2022-09-18T09:11:52.906Z,7.20
2022-09-18T09:14:55.536Z,8.90
2022-09-18T09:17:26.310Z,6.20
2022-09-18T09:19:54.783Z,8.00
2022-09-18T09:22:27.022Z,5.50
2022-09-18T09:25:00.935Z,6.88
2022-09-18T09:27:31.499Z,6.88
2022-09-18T09:30:02.002Z,4.45
2022-09-18T09:32:34.111Z,5.45
2022-09-18T09:35:05.010Z,2.85
2022-09-18T09:40:06.694Z,5.00
2022-09-18T09:42:38.230Z,7.88
2022-09-18T09:45:11.644Z,7.32
2022-09-18T09:47:43.698Z,3.78
2022-09-18T09:50:16.423Z,8.57
2022-09-18T09:52:46.126Z,3.97
2022-09-18T09:55:19.604Z,5.28
2022-09-18T09:57:51.200Z,6.30
2022-09-18T10:00:19.725Z,3.30
2022-09-18T10:03:05.128Z,5.82
2022-09-18T10:05:36.466Z,3.78
2022-09-18T10:08:06.131Z,5.13
2022-09-18T10:10:39.767Z,6.20
2022-09-18T10:13:11.922Z,11.38
2022-09-18T10:15:40.260Z,5.10
2022-09-18T10:18:16.260Z,5.43
2022-09-18T10:20:46.548Z,6.50
2022-09-18T10:23:15.742Z,5.15
2022-09-18T10:25:45.207Z,5.03
2022-09-18T10:28:13.656Z,6.75
2022-09-18T10:30:53.208Z,4.55
2022-09-18T10:33:31.110Z,4.57
2022-09-18T10:36:02.525Z,4.55
2022-09-18T10:38:32.286Z,7.07
2022-09-18T10:41:11.834Z,4.63
2022-09-18T10:43:42.118Z,6.28
2022-09-18T10:46:09.501Z,5.38
2022-09-18T10:48:37.352Z,4.43
2022-09-18T10:51:06.492Z,5.68
2022-09-18T10:53:34.761Z,6.03
2022-09-18T10:56:04.808Z,6.70
2022-09-18T10:58:33.123Z,7.18
2022-09-18T11:01:02.347Z,5.05
2022-09-18T11:03:38.652Z,6.50
2022-09-18T11:06:08.909Z,2.58
2022-09-18T11:08:37.223Z,5.85
2022-09-18T11:11:06.470Z,5.18
2022-09-18T11:13:37.584Z,6.93
2022-09-18T11:16:06.229Z,7.35
2022-09-18T11:18:33.880Z,4.45
2022-09-18T11:21:03.336Z,6.68
2022-09-18T11:23:32.848Z,4.45
2022-09-18T11:26:16.395Z,4.15
2022-09-18T11:28:43.790Z,6.93
2022-09-18T11:31:14.662Z,4.18
2022-09-18T11:33:44.505Z,6.78
2022-09-18T11:36:12.628Z,5.57
2022-09-18T11:38:42.347Z,0.10
2022-09-18T11:41:09.828Z,0.05
2022-09-18T11:43:38.382Z,0.00
2022-09-18T11:46:09.431Z,0.00
2022-09-18T11:51:05.251Z,0.00
2022-09-18T11:53:34.447Z,0.00
2022-09-18T11:56:07.362Z,0.00
2022-09-18T11:58:37.872Z,0.00
2022-09-18T12:01:12.651Z,0.00
2022-09-18T12:03:42.741Z,0.00
2022-09-18T12:06:13.664Z,0.00
2022-09-18T12:08:44.092Z,0.00
2022-09-18T12:11:17.941Z,0.00
2022-09-18T12:13:58.491Z,0.00
2022-09-18T12:16:28.298Z,0.10
2022-09-18T12:19:00.379Z,6.40
2022-09-18T12:21:33.591Z,6.85
2022-09-18T12:24:01.206Z,7.68
2022-09-18T12:26:33.654Z,4.25
2022-09-18T12:29:05.891Z,7.25
2022-09-18T12:31:36.530Z,5.57
2022-09-18T12:34:08.457Z,3.42
2022-09-18T12:36:47.288Z,3.95
2022-09-18T12:39:23.462Z,2.15
2022-09-18T12:41:57.473Z,2.38
2022-09-18T12:44:41.335Z,3.17
2022-09-18T12:47:17.639Z,1.65
2022-09-18T12:50:02.725Z,3.70
2022-09-18T12:52:50.653Z,1.55
2022-09-18T12:55:36.521Z,1.73
2022-09-18T12:58:13.078Z,2.25
2022-09-18T13:00:41.286Z,1.77
2022-09-18T13:03:12.493Z,2.90
2022-09-18T13:05:41.715Z,1.98
2022-09-18T13:08:12.648Z,3.05
2022-09-18T13:10:42.535Z,2.85
2022-09-18T13:13:14.135Z,2.10
2022-09-18T13:15:44.455Z,3.65
2022-09-18T13:18:18.475Z,3.78
2022-09-18T13:20:46.611Z,3.85
2022-09-18T13:23:16.565Z,3.40
2022-09-18T13:25:44.683Z,4.68
2022-09-18T13:28:14.625Z,3.08
2022-09-18T13:30:42.101Z,4.15
2022-09-18T13:33:22.700Z,4.47
2022-09-18T13:35:53.695Z,3.13
2022-09-18T13:38:23.270Z,4.95
2022-09-18T13:40:59.253Z,5.57
2022-09-18T13:43:44.389Z,3.70
2022-09-18T13:46:29.781Z,2.88
2022-09-18T13:48:57.216Z,4.70
2022-09-18T13:51:30.675Z,2.25
2022-09-18T13:54:17.584Z,4.38
2022-09-18T13:57:03.866Z,2.75
2022-09-18T13:59:45.248Z,3.47
2022-09-18T14:02:27.850Z,4.00
2022-09-18T14:05:00.502Z,5.72
2022-09-18T14:07:50.737Z,4.38
2022-09-18T14:10:23.459Z,5.00
2022-09-18T14:13:04.907Z,3.50
2022-09-18T14:15:32.400Z,2.97
2022-09-18T14:18:06.646Z,1.73
2022-09-18T14:20:35.607Z,2.63
2022-09-18T14:23:26.919Z,3.20
2022-09-18T14:25:54.390Z,1.27
2022-09-18T14:28:22.139Z,2.85
2022-09-18T14:31:04.486Z,1.33
2022-09-18T14:33:32.687Z,3.00
2022-09-18T14:36:04.434Z,3.58
2022-09-18T14:38:34.296Z,2.45
2022-09-18T14:41:09.017Z,4.55
2022-09-18T14:43:38.359Z,2.20
2022-09-18T14:46:06.617Z,2.30
2022-09-18T14:48:37.091Z,1.77
2022-09-18T14:51:07.322Z,3.58
2022-09-18T14:53:42.022Z,4.25
2022-09-18T14:56:11.160Z,1.85
2022-09-18T14:58:39.573Z,2.08
2022-09-18T15:01:08.047Z,3.63
2022-09-18T15:03:38.328Z,2.50
2022-09-18T15:06:09.796Z,4.53
2022-09-18T15:08:37.998Z,1.65
2022-09-18T15:11:05.825Z,5.43
2022-09-18T15:13:35.543Z,4.03
2022-09-18T15:16:04.961Z,4.13
2022-09-18T15:18:39.621Z,4.60
2022-09-18T15:21:19.617Z,5.32
2022-09-18T15:23:46.997Z,3.60
2022-09-18T15:26:15.832Z,1.67
2022-09-18T15:28:44.700Z,4.88
2022-09-18T15:31:12.832Z,2.33
2022-09-18T15:33:42.927Z,4.07
2022-09-18T15:36:22.990Z,3.25
2022-09-18T15:38:52.051Z,3.55
2022-09-18T15:41:24.505Z,3.90
2022-09-18T15:43:51.838Z,1.70
2022-09-18T15:46:25.510Z,3.15
2022-09-18T15:48:53.049Z,4.13
2022-09-18T15:51:24.198Z,2.28
2022-09-18T15:54:02.015Z,5.97
2022-09-18T15:56:31.051Z,4.32
2022-09-18T15:58:59.176Z,2.83
2022-09-18T16:01:31.925Z,2.97
2022-09-18T16:04:04.520Z,3.88
2022-09-18T16:06:41.703Z,3.78
2022-09-18T16:09:09.077Z,3.35
2022-09-18T16:11:38.817Z,2.20
2022-09-18T16:14:34.333Z,5.18
2022-09-18T16:17:16.563Z,2.25
2022-09-18T16:19:44.277Z,4.95
2022-09-18T16:22:13.868Z,3.38
2022-09-18T16:24:41.217Z,2.13
2022-09-18T16:27:08.741Z,3.22
2022-09-18T16:29:36.069Z,5.40
2022-09-18T16:32:03.453Z,3.75
2022-09-18T16:34:30.814Z,3.60
2022-09-18T16:36:58.310Z,5.75
2022-09-18T16:39:27.811Z,3.65
2022-09-18T16:41:55.151Z,2.42
2022-09-18T16:44:22.623Z,2.78
2022-09-18T16:46:51.510Z,3.28
2022-09-18T16:49:20.108Z,4.75
2022-09-18T16:51:47.439Z,4.53
2022-09-18T16:54:14.845Z,3.05
2022-09-18T16:56:45.375Z,3.25
2022-09-18T16:59:13.498Z,3.05
2022-09-18T17:02:00.325Z,3.42
2022-09-18T17:04:29.602Z,4.80
2022-09-18T17:06:56.950Z,3.40
2022-09-18T17:09:24.806Z,4.05
2022-09-18T17:11:54.203Z,2.88
2022-09-18T17:14:21.862Z,8.48
2022-09-18T17:16:49.285Z,8.35
2022-09-18T17:19:16.677Z,5.82
2022-09-18T17:21:44.053Z,5.57
2022-09-18T17:24:11.849Z,1.77
2022-09-18T17:26:39.966Z,2.85
2022-09-18T17:29:10.358Z,3.97
2022-09-18T17:31:37.850Z,2.60
2022-09-18T17:34:05.687Z,3.95
2022-09-18T17:36:35.894Z,3.50
2022-09-18T17:39:04.335Z,3.67
2022-09-18T17:41:32.267Z,4.53
2022-09-18T17:43:59.904Z,3.50
2022-09-18T17:46:28.772Z,3.40
2022-09-18T17:48:56.899Z,4.13
2022-09-18T17:51:28.469Z,2.85
2022-09-18T17:53:58.218Z,3.30
2022-09-18T17:56:29.711Z,2.95
2022-09-18T17:58:59.242Z,3.50
2022-09-18T18:01:27.989Z,2.85
2022-09-18T18:03:57.322Z,3.55
2022-09-18T18:06:24.734Z,2.80
2022-09-18T18:08:52.146Z,3.95
2022-09-18T18:11:22.001Z,3.83
2022-09-18T18:13:49.895Z,3.30
2022-09-18T18:16:19.652Z,3.08
2022-09-18T18:18:47.035Z,6.40
2022-09-18T18:21:15.774Z,4.68
2022-09-18T18:23:43.842Z,4.18
2022-09-18T18:26:11.728Z,7.95
2022-09-18T18:28:40.033Z,7.00
2022-09-18T18:31:08.173Z,10.18
2022-09-18T18:33:36.265Z,5.20
2022-09-18T18:36:10.628Z,5.85
2022-09-18T18:38:39.477Z,5.28
2022-09-18T18:41:06.999Z,5.47
2022-09-18T18:43:34.749Z,4.18
2022-09-18T18:46:02.146Z,3.70
2022-09-18T18:48:33.838Z,8.40
2022-09-18T18:51:04.256Z,5.68
2022-09-18T18:53:32.326Z,4.10
2022-09-18T18:56:05.013Z,5.25
2022-09-18T18:58:32.466Z,5.72
2022-09-18T19:01:04.889Z,5.22
2022-09-18T19:03:35.180Z,7.40
2022-09-18T19:06:05.735Z,6.40
2022-09-18T19:08:34.371Z,6.45
2022-09-18T19:11:01.849Z,5.13
2022-09-18T19:13:30.586Z,5.03
2022-09-18T19:15:57.965Z,5.30
2022-09-18T19:18:25.474Z,4.70
2022-09-18T19:20:53.521Z,6.32
2022-09-18T19:23:20.945Z,7.43
2022-09-18T19:25:48.275Z,3.95
2022-09-18T19:28:16.953Z,6.53
2022-09-18T19:30:47.241Z,5.57
2022-09-18T19:33:15.664Z,6.90
2022-09-18T19:35:43.069Z,3.83
2022-09-18T19:38:12.693Z,5.88
2022-09-18T19:40:40.248Z,3.08
2022-09-18T19:43:10.141Z,4.15
2022-09-18T19:45:38.014Z,7.18
2022-09-18T19:48:08.857Z,5.28
2022-09-18T19:50:38.574Z,7.28
2022-09-18T19:53:05.910Z,5.93
2022-09-18T19:55:33.436Z,5.43
2022-09-18T19:58:01.410Z,4.90
2022-09-18T20:00:29.884Z,4.63
2022-09-18T20:02:58.078Z,3.63
2022-09-18T20:05:26.863Z,3.42
2022-09-18T20:07:54.350Z,4.60
2022-09-18T20:10:22.842Z,3.63
2022-09-18T20:12:52.613Z,4.43
2022-09-18T20:15:20.079Z,4.35
2022-09-18T20:17:47.423Z,2.63
2022-09-18T20:20:16.576Z,3.03
2022-09-18T20:22:45.413Z,3.92
2022-09-18T20:25:12.835Z,4.22
2022-09-18T20:27:41.441Z,4.78
2022-09-18T20:30:10.001Z,4.32
2022-09-18T20:32:37.573Z,6.10
2022-09-18T20:35:05.960Z,5.00
2022-09-18T20:37:33.674Z,4.07
2022-09-18T20:40:02.895Z,5.70
2022-09-18T20:42:31.536Z,5.95
2022-09-18T20:45:02.312Z,6.68
2022-09-18T20:47:34.765Z,6.13
2022-09-18T20:50:06.625Z,4.35
2022-09-18T20:52:36.177Z,4.60
2022-09-18T20:55:08.793Z,3.08
2022-09-18T20:57:36.871Z,6.80
2022-09-18T21:00:05.137Z,6.75
2022-09-18T21:02:35.217Z,4.53
2022-09-18T21:05:04.167Z,7.32
2022-09-18T21:07:32.347Z,7.85
2022-09-18T21:10:00.013Z,9.73
2022-09-18T21:12:39.014Z,4.55
2022-09-18T21:15:07.387Z,5.10
2022-09-18T21:17:34.766Z,3.80
2022-09-18T21:20:02.855Z,6.05
2022-09-18T21:22:31.719Z,12.57
2022-09-18T21:24:59.426Z,4.65
2022-09-18T21:27:27.135Z,4.25
2022-09-18T21:29:56.475Z,4.95
2022-09-18T21:32:23.891Z,3.75
2022-09-18T21:34:52.779Z,6.13
2022-09-18T21:37:20.219Z,3.67
2022-09-18T21:39:47.574Z,5.25
2022-09-18T21:42:17.604Z,5.90
2022-09-18T21:44:45.537Z,8.30
2022-09-18T21:47:14.283Z,4.38
2022-09-18T21:49:41.717Z,4.57
2022-09-18T21:52:09.245Z,7.35
2022-09-18T21:54:36.729Z,5.65
2022-09-18T21:57:04.290Z,4.88
2022-09-18T21:59:32.096Z,3.58
2022-09-18T22:02:00.515Z,3.15
2022-09-18T22:04:30.318Z,8.27
2022-09-18T22:06:58.659Z,5.47
2022-09-18T22:09:27.105Z,4.75
2022-09-18T22:11:54.995Z,5.18
2022-09-18T22:14:23.612Z,4.80
2022-09-18T22:16:53.071Z,6.43
2022-09-18T22:19:20.814Z,6.70
2022-09-18T22:21:50.914Z,6.97
2022-09-18T22:24:19.835Z,5.45
2022-09-18T22:26:48.179Z,4.10
2022-09-18T22:29:16.447Z,4.05
2022-09-18T22:31:46.370Z,4.85
2022-09-18T22:34:14.358Z,3.30
2022-09-18T22:36:41.885Z,5.57
2022-09-18T22:39:11.713Z,6.18
2022-09-18T22:41:39.118Z,4.90
2022-09-18T22:44:07.378Z,8.93
2022-09-18T22:46:36.925Z,5.32
2022-09-18T22:49:04.290Z,6.88
2022-09-18T22:51:31.617Z,4.60
2022-09-18T22:53:59.832Z,4.93
2022-09-18T22:56:29.225Z,6.82
2022-09-18T22:58:57.126Z,5.88
2022-09-18T23:01:26.522Z,8.48
2022-09-18T23:03:55.666Z,6.30
2022-09-18T23:06:25.599Z,6.13
2022-09-18T23:08:53.322Z,6.38
2022-09-18T23:11:21.911Z,4.60
2022-09-18T23:13:51.897Z,4.72
2022-09-18T23:16:19.599Z,4.90
2022-09-18T23:18:48.953Z,5.72
2022-09-18T23:21:16.583Z,6.22
2022-09-18T23:23:45.290Z,4.07
2022-09-18T23:26:13.416Z,6.25
2022-09-18T23:28:42.561Z,5.10
2022-09-18T23:31:11.883Z,5.45
2022-09-18T23:33:39.595Z,5.20
2022-09-18T23:36:08.018Z,5.88
2022-09-18T23:38:35.739Z,6.00
2022-09-18T23:41:04.114Z,8.88
2022-09-18T23:43:31.563Z,7.75
2022-09-18T23:45:58.939Z,5.75
2022-09-18T23:48:28.306Z,9.65
2022-09-18T23:50:56.087Z,5.78
2022-09-18T23:53:24.149Z,9.15
2022-09-18T23:55:51.586Z,4.70
2022-09-18T23:58:19.386Z,6.57
